Time;durP1;ratioP1;P1;durP2;ratioP2;P2;SDS_P1;SDS_P2;PMS_P1;PMS_P2;Temp;Humidity;BMP_temperature;BMP_pressure;BME280_temperature;BME280_humidity;BME280_pressure;Samples;Min_cycle;Max_cycle;Signal;HPM_P1;HPM_P2
2023/05/24 00:01:50;;;;;;;;;42.75;35.00;;;;;17.89;76.48;100439.97;5076412;28;45839;-75
2023/05/24 00:04:17;;;;;;;;;44.25;35.25;;;;;17.91;76.28;100441.72;5076971;28;45821;-74
2023/05/24 00:06:43;;;;;;;;;46.50;37.25;;;;;17.66;76.12;100395.03;5079599;28;45476;-83
2023/05/24 00:09:11;;;;;;;;;49.50;40.00;;;;;17.96;75.84;100434.66;5080193;27;45526;-73
2023/05/24 00:11:36;;;;;;;;;45.50;37.25;;;;;17.88;76.04;100432.03;5079718;28;46172;-74
2023/05/24 00:14:02;;;;;;;;;42.25;34.50;;;;;17.59;76.43;100393.31;5080396;28;45315;-74
2023/05/24 00:16:27;;;;;;;;;42.25;34.25;;;;;17.75;76.59;100417.06;5079968;28;45339;-84
2023/05/24 00:18:53;;;;;;;;;47.75;37.00;;;;;17.33;76.83;100366.91;5080065;27;47187;-84
2023/05/24 00:21:19;;;;;;;;;41.25;32.50;;;;;17.52;77.00;100391.53;5079799;28;46385;-78
2023/05/24 00:23:45;;;;;;;;;42.25;35.00;;;;;17.60;77.24;100404.75;5079777;27;45552;-73
2023/05/24 00:26:10;;;;;;;;;46.00;37.75;;;;;17.73;77.41;100422.34;5079847;28;45309;-73
2023/05/24 00:28:36;;;;;;;;;42.50;32.75;;;;;17.74;77.13;100415.28;5080322;28;45525;-83
2023/05/24 00:31:02;;;;;;;;;40.00;32.50;;;;;17.67;77.21;100391.53;5079692;28;45478;-82
2023/05/24 00:33:28;;;;;;;;;39.75;33.75;;;;;17.54;77.17;100366.00;5079707;28;45280;-75
2023/05/24 00:35:57;;;;;;;;;43.75;34.00;;;;;17.84;77.22;100407.38;5079787;28;45464;-84
2023/05/24 00:38:24;;;;;;;;;46.75;38.75;;;;;17.70;76.82;100386.22;5079998;27;45323;-82
2023/05/24 00:40:49;;;;;;;;;40.75;33.50;;;;;17.57;77.10;100378.34;5079391;27;46548;-82
2023/05/24 00:43:15;;;;;;;;;44.00;35.25;;;;;17.58;77.41;100367.75;5079477;27;45419;-83
2023/05/24 00:45:41;;;;;;;;;41.00;34.50;;;;;17.78;77.08;100391.50;5079674;27;45512;-81
2023/05/24 00:48:07;;;;;;;;;38.50;31.75;;;;;17.73;77.32;100385.34;5080051;28;45545;-84
2023/05/24 00:50:33;;;;;;;;;43.50;34.25;;;;;17.80;77.27;100391.50;5079959;28;45370;-83
2023/05/24 00:53:02;;;;;;;;;40.25;32.25;;;;;17.83;76.98;100392.41;5079304;28;45326;-82
2023/05/24 00:55:29;;;;;;;;;40.50;33.00;;;;;17.85;77.42;100385.34;5079341;28;45258;-80
2023/05/24 00:57:56;;;;;;;;;34.50;31.75;;;;;17.90;76.98;100385.34;5079461;28;45472;-84
2023/05/24 01:00:23;;;;;;;;;34.50;30.50;;;;;17.91;76.94;100379.19;5079223;28;45512;-74
2023/05/24 01:02:49;;;;;;;;;39.00;34.00;;;;;17.74;76.62;100358.03;5079244;28;45210;-79
2023/05/24 01:05:16;;;;;;;;;44.00;35.25;;;;;17.84;77.06;100361.56;5079384;28;45490;-75
2023/05/24 01:08:08;;;;;;;;;42.75;35.25;;;;;17.64;77.26;100340.47;5079675;28;45337;-84
2023/05/24 01:11:03;;;;;;;;;37.50;32.25;;;;;17.85;77.54;100385.34;5079261;28;45526;-78
2023/05/24 01:13:50;;;;;;;;;46.75;36.75;;;;;17.82;77.94;100374.75;5070558;28;45429;-83
2023/05/24 01:16:24;;;;;;;;;41.25;34.75;;;;;17.79;78.06;100379.19;5078863;28;45551;-74
2023/05/24 01:18:55;;;;;;;;;43.00;36.00;;;;;17.79;78.53;100379.19;5078587;28;45490;-75
2023/05/24 01:21:55;;;;;;;;;40.00;34.50;;;;;17.79;78.80;100377.41;5078806;28;45197;-84
2023/05/24 01:24:41;;;;;;;;;43.00;34.00;;;;;17.71;79.01;100379.19;5078882;28;45480;-84
2023/05/24 01:27:14;;;;;;;;;35.00;31.25;;;;;17.78;78.47;100380.06;5079595;28;45268;-85
2023/05/24 01:29:41;;;;;;;;;44.50;36.50;;;;;17.70;78.67;100362.44;5082463;27;45347;-80
2023/05/24 01:32:07;;;;;;;;;41.25;34.00;;;;;17.78;78.58;100377.41;5079012;28;45434;-84
2023/05/24 01:34:33;;;;;;;;;38.25;33.00;;;;;17.80;78.24;100365.06;5078921;28;45328;-74
2023/05/24 01:36:59;;;;;;;;;39.75;32.25;;;;;17.78;77.74;100361.56;5078833;28;45433;-74
2023/05/24 01:39:27;;;;;;;;;36.25;32.00;;;;;17.56;77.82;100329.03;5078839;27;45185;-76
2023/05/24 01:42:10;;;;;;;;;39.25;34.50;;;;;17.78;78.52;100361.56;5078301;28;45452;-75
2023/05/24 01:45:00;;;;;;;;;34.00;31.50;;;;;17.77;78.37;100359.81;5078487;28;45568;-76
2023/05/24 01:47:37;;;;;;;;;41.00;33.00;;;;;17.77;77.92;100354.53;5078420;27;45483;-76
2023/05/24 01:50:30;;;;;;;;;44.25;35.00;;;;;17.74;78.03;100338.66;5060418;28;45386;-76
2023/05/24 01:53:01;;;;;;;;;40.50;34.75;;;;;17.54;77.91;100321.09;5071849;28;45501;-85
2023/05/24 01:55:28;;;;;;;;;44.00;33.25;;;;;17.53;78.00;100322.00;5078682;28;45492;-75
2023/05/24 01:57:59;;;;;;;;;36.50;32.75;;;;;17.55;78.56;100322.88;5061671;28;45592;-83
2023/05/24 02:00:25;;;;;;;;;36.50;30.50;;;;;17.66;78.50;100331.63;5080289;28;45438;-77
2023/05/24 02:02:51;;;;;;;;;33.75;29.75;;;;;17.32;78.50;100280.66;5079808;28;45329;-76
2023/05/24 02:05:17;;;;;;;;;39.75;33.00;;;;;17.60;78.59;100333.44;5079397;28;45354;-76
2023/05/24 02:07:42;;;;;;;;;36.25;32.25;;;;;17.51;78.78;100318.50;5081507;28;45484;-75
2023/05/24 02:10:08;;;;;;;;;31.50;29.25;;;;;17.34;78.78;100288.59;5080308;28;45485;-82
2023/05/24 02:12:34;;;;;;;;;33.75;30.25;;;;;17.28;78.55;100281.56;5079633;27;45855;-83
2023/05/24 02:15:00;;;;;;;;;36.75;32.00;;;;;17.63;78.67;100330.78;5081285;27;45785;-80
2023/05/24 02:17:26;;;;;;;;;32.25;29.50;;;;;17.63;78.81;100331.66;5080764;28;45329;-74
2023/05/24 02:19:52;;;;;;;;;31.25;29.50;;;;;17.36;78.76;100268.34;5080314;28;45326;-78
2023/05/24 02:22:21;;;;;;;;;28.75;28.00;;;;;17.65;78.49;100315.81;5081204;28;46140;-74
2023/05/24 02:24:47;;;;;;;;;29.50;27.75;;;;;17.62;78.39;100308.75;5080317;28;45336;-84
2023/05/24 02:27:12;;;;;;;;;27.50;25.25;;;;;17.41;78.27;100266.59;5080519;27;45446;-74
2023/05/24 02:29:38;;;;;;;;;30.75;27.25;;;;;17.67;78.32;100322.84;5079005;28;45261;-83
2023/05/24 02:32:04;;;;;;;;;26.25;24.00;;;;;17.55;77.98;100296.47;5079137;28;45585;-85
2023/05/24 02:34:29;;;;;;;;;32.75;29.50;;;;;17.66;78.31;100313.13;5082839;28;45399;-85
2023/05/24 02:36:55;;;;;;;;;31.25;27.00;;;;;17.65;78.35;100313.19;5081001;28;45261;-74
2023/05/24 02:39:20;;;;;;;;;31.75;29.75;;;;;17.57;79.08;100315.84;5078728;28;45342;-78
2023/05/24 02:41:46;;;;;;;;;35.75;28.25;;;;;17.57;78.98;100320.25;5078392;28;45868;-75
2023/05/24 02:44:11;;;;;;;;;27.50;26.00;;;;;17.57;78.20;100312.31;5078257;28;45510;-79
2023/05/24 02:46:37;;;;;;;;;26.50;25.25;;;;;16.84;77.77;100187.50;5077807;28;45516;-74
2023/05/24 02:49:03;;;;;;;;;22.25;22.25;;;;;17.63;77.41;100323.75;5077785;28;45298;-75
2023/05/24 02:51:29;;;;;;;;;26.75;25.00;;;;;17.37;77.84;100286.81;5077487;28;46202;-80
2023/05/24 02:53:55;;;;;;;;;26.25;23.25;;;;;17.62;78.05;100324.59;5077698;27;45459;-75
2023/05/24 02:56:20;;;;;;;;;22.00;21.25;;;;;17.62;77.83;100336.94;5077468;28;45322;-74
2023/05/24 02:58:46;;;;;;;;;26.75;22.75;;;;;17.34;78.26;100292.09;5059320;28;45517;-73
2023/05/24 03:01:12;;;;;;;;;25.25;22.50;;;;;17.35;78.15;100295.59;5077491;28;45910;-74
2023/05/24 03:03:38;;;;;;;;;27.75;24.00;;;;;17.60;78.04;100325.50;5077474;28;45340;-84
2023/05/24 03:06:05;;;;;;;;;22.00;21.25;;;;;17.60;78.10;100321.09;5077561;27;45639;-81
2023/05/24 03:08:32;;;;;;;;;26.00;24.00;;;;;17.62;78.28;100323.72;5077712;28;45468;-74
2023/05/24 03:10:57;;;;;;;;;21.00;20.50;;;;;17.40;78.07;100283.28;5077057;27;46323;-84
2023/05/24 03:13:23;;;;;;;;;27.00;24.25;;;;;17.28;78.27;100274.50;5077558;27;45335;-82
2023/05/24 03:15:48;;;;;;;;;27.00;24.50;;;;;17.60;78.39;100329.00;5077956;28;45553;-78
2023/05/24 03:18:14;;;;;;;;;24.75;22.50;;;;;17.58;78.19;100327.25;5078337;28;45307;-83
2023/05/24 03:20:40;;;;;;;;;23.00;22.25;;;;;17.61;78.27;100322.00;5076983;28;46117;-83
2023/05/24 03:23:06;;;;;;;;;26.25;23.00;;;;;17.61;78.04;100319.34;5077166;28;45339;-83
2023/05/24 03:25:31;;;;;;;;;22.00;20.50;;;;;17.60;78.45;100326.38;5077203;27;45220;-83
2023/05/24 03:27:57;;;;;;;;;16.00;15.50;;;;;17.62;78.31;100321.97;5077581;28;45740;-74
2023/05/24 03:30:22;;;;;;;;;22.75;19.75;;;;;17.64;77.90;100328.13;5076921;28;45457;-83
2023/05/24 03:32:48;;;;;;;;;21.25;20.00;;;;;17.66;78.09;100323.72;5076974;28;45466;-81
2023/05/24 03:35:13;;;;;;;;;21.75;20.00;;;;;17.65;77.89;100321.09;5077600;28;45494;-83
2023/05/24 03:37:39;;;;;;;;;21.25;21.25;;;;;17.40;77.43;100284.16;5077283;28;45397;-82
2023/05/24 03:40:06;;;;;;;;;22.50;21.50;;;;;17.57;77.99;100313.19;5077156;28;45411;-83
2023/05/24 03:42:32;;;;;;;;;22.25;20.75;;;;;17.35;78.90;100283.31;5080542;28;45546;-74
2023/05/24 03:44:57;;;;;;;;;25.00;21.50;;;;;17.64;78.51;100325.47;5080533;27;45383;-83
2023/05/24 03:47:23;;;;;;;;;24.75;20.00;;;;;17.64;78.81;100330.75;5080893;28;45314;-83
2023/05/24 03:49:48;;;;;;;;;23.50;22.25;;;;;17.46;78.75;100297.34;5080699;28;46069;-74
2023/05/24 03:52:14;;;;;;;;;22.00;21.25;;;;;17.29;78.81;100284.19;5080720;28;45237;-81
2023/05/24 03:54:40;;;;;;;;;22.75;19.25;;;;;17.32;79.00;100285.06;5080381;28;45272;-74
2023/05/24 03:57:05;;;;;;;;;21.75;19.00;;;;;17.35;79.44;100296.50;5062303;28;45576;-83
2023/05/24 03:59:31;;;;;;;;;21.50;20.50;;;;;17.54;79.63;100325.50;5080155;27;45481;-76
2023/05/24 04:01:56;;;;;;;;;22.25;20.00;;;;;17.36;79.51;100289.47;5080071;28;45493;-83
2023/05/24 04:04:22;;;;;;;;;22.00;20.50;;;;;17.65;79.35;100335.19;5080373;28;45154;-83
2023/05/24 04:06:48;;;;;;;;;24.75;22.50;;;;;17.66;79.26;100336.91;5080805;28;45442;-84
2023/05/24 04:09:14;;;;;;;;;21.00;19.67;;;;;17.65;78.72;100335.19;5080062;28;45405;-74
2023/05/24 04:11:40;;;;;;;;;19.50;19.50;;;;;17.68;78.70;100335.16;5080187;28;45445;-76
2023/05/24 04:14:06;;;;;;;;;22.00;21.00;;;;;17.68;78.74;100335.16;5080115;28;45504;-83
2023/05/24 04:16:32;;;;;;;;;25.50;22.75;;;;;17.47;78.86;100296.47;5080268;28;45400;-81
2023/05/24 04:19:00;;;;;;;;;19.25;19.25;;;;;17.10;78.87;100254.28;5079836;28;45971;-75
2023/05/24 04:21:26;;;;;;;;;23.25;21.75;;;;;17.62;79.34;100340.44;5079791;28;45451;-84
2023/05/24 04:23:52;;;;;;;;;19.50;19.00;;;;;17.56;79.57;100335.19;5079711;27;45706;-83
2023/05/24 04:26:18;;;;;;;;;20.50;18.00;;;;;17.58;79.83;100337.84;5080488;28;45485;-84
2023/05/24 04:28:47;;;;;;;;;20.00;19.50;;;;;17.60;79.25;100344.84;5079933;28;45461;-85
2023/05/24 04:31:14;;;;;;;;;19.00;18.75;;;;;17.65;78.69;100347.50;5079909;28;45284;-84
2023/05/24 04:33:40;;;;;;;;;20.00;19.75;;;;;17.65;78.81;100356.31;5061516;28;45485;-84
2023/05/24 04:36:07;;;;;;;;;21.75;19.75;;;;;17.64;79.36;100356.31;5081552;28;45632;-84
2023/05/24 04:38:34;;;;;;;;;22.00;20.75;;;;;17.57;79.16;100355.44;5080225;27;45256;-77
2023/05/24 04:41:00;;;;;;;;;23.50;21.75;;;;;17.34;79.44;100317.63;5080019;28;45437;-83
2023/05/24 04:43:26;;;;;;;;;24.00;21.75;;;;;17.59;79.43;100358.97;5079747;28;45354;-75
2023/05/24 04:45:53;;;;;;;;;20.00;18.33;;;;;17.63;79.00;100358.06;5080032;27;45383;-75
2023/05/24 04:48:20;;;;;;;;;20.25;18.75;;;;;16.61;78.72;100176.94;5079812;28;45528;-85
2023/05/24 04:50:46;;;;;;;;;22.50;20.50;;;;;17.67;78.97;100358.97;5079048;27;45471;-75
2023/05/24 04:53:13;;;;;;;;;22.25;20.25;;;;;17.66;79.30;100362.47;5078258;28;45452;-83
2023/05/24 04:55:39;;;;;;;;;20.25;19.50;;;;;16.98;79.40;100248.16;5061244;28;45415;-76
2023/05/24 04:58:04;;;;;;;;;21.50;20.25;;;;;17.57;79.10;100342.25;5079030;27;46178;-75
2023/05/24 05:00:30;;;;;;;;;23.50;22.50;;;;;17.63;79.01;100360.72;5079121;28;45326;-81
2023/05/24 05:02:55;;;;;;;;;23.25;21.25;;;;;17.49;78.90;100339.59;5060978;28;45484;-79
2023/05/24 05:05:21;;;;;;;;;17.25;17.25;;;;;17.55;78.77;100344.00;5079726;28;45434;-78
2023/05/24 05:07:47;;;;;;;;;15.33;15.33;;;;;17.46;78.71;100325.53;5079126;28;46440;-84
2023/05/24 05:10:12;;;;;;;;;19.75;19.00;;;;;17.64;79.21;100366.88;5079119;28;45302;-83
2023/05/24 05:12:38;;;;;;;;;22.75;19.50;;;;;17.62;79.05;100366.00;5079429;28;45514;-83
2023/05/24 05:15:04;;;;;;;;;17.67;17.00;;;;;17.62;79.00;100361.59;5079544;27;45804;-83
2023/05/24 05:17:29;;;;;;;;;20.25;20.00;;;;;17.49;78.98;100339.59;5078744;27;45469;-77
2023/05/24 05:19:55;;;;;;;;;21.67;18.33;;;;;17.49;78.65;100339.59;5078868;28;45349;-83
2023/05/24 05:22:20;;;;;;;;;19.33;17.33;;;;;17.48;78.48;100336.97;5079346;27;46033;-80
2023/05/24 05:24:46;;;;;;;;;22.00;17.25;;;;;17.32;78.50;100303.56;5079310;28;45345;-84
2023/05/24 05:27:11;;;;;;;;;18.00;16.00;;;;;17.64;78.51;100370.38;5078767;28;45627;-84
2023/05/24 05:29:37;;;;;;;;;19.67;16.33;;;;;17.66;78.10;100368.63;5078809;28;45455;-79
2023/05/24 05:32:02;;;;;;;;;18.67;15.67;;;;;17.53;78.04;100353.69;5078819;28;45421;-84
2023/05/24 05:34:28;;;;;;;;;19.00;17.00;;;;;17.64;78.65;100372.16;5078932;28;45264;-81
2023/05/24 05:36:53;;;;;;;;;20.00;18.00;;;;;17.62;78.63;100382.72;5079018;28;46608;-83
2023/05/24 05:39:19;;;;;;;;;21.75;18.75;;;;;17.32;78.84;100327.31;5078749;28;45429;-83
2023/05/24 05:41:44;;;;;;;;;27.00;25.25;;;;;17.65;78.88;100384.50;5078778;28;45280;-84
2023/05/24 05:44:13;;;;;;;;;41.50;33.50;;;;;17.28;78.93;100318.50;5079114;28;45374;-84
2023/05/24 05:46:40;;;;;;;;;26.00;22.50;;;;;17.37;78.69;100339.63;5078124;28;46244;-76
2023/05/24 05:49:05;;;;;;;;;25.25;22.50;;;;;17.69;78.71;100389.75;5060017;28;45493;-77
2023/05/24 05:51:31;;;;;;;;;24.50;18.75;;;;;17.59;78.13;100361.59;5078301;27;45432;-77
2023/05/24 05:53:57;;;;;;;;;17.67;17.67;;;;;17.78;78.25;100387.97;5078605;28;45366;-76
2023/05/24 05:56:22;;;;;;;;;19.00;16.00;;;;;17.80;78.20;100391.50;5078280;28;45515;-79
2023/05/24 05:58:48;;;;;;;;;22.00;20.00;;;;;17.82;78.11;100395.00;5077928;28;45324;-77
2023/05/24 06:01:14;;;;;;;;;20.67;18.00;;;;;16.80;77.60;100214.72;5078307;28;45422;-77
2023/05/24 06:03:40;;;;;;;;;19.00;18.33;;;;;17.72;77.71;100366.84;5077952;28;45444;-80
2023/05/24 06:06:06;;;;;;;;;19.33;18.33;;;;;17.77;77.57;100386.25;5077866;28;45528;-83
2023/05/24 06:08:33;;;;;;;;;21.50;20.50;;;;;17.80;77.95;100380.94;5077932;28;45377;-78
2023/05/24 06:11:00;;;;;;;;;20.50;17.75;;;;;17.64;77.62;100351.91;5078013;28;45641;-76
2023/05/24 06:13:27;;;;;;;;;16.50;15.00;;;;;17.80;77.40;100383.56;5078387;28;45213;-81
2023/05/24 06:15:55;;;;;;;;;15.00;14.33;;;;;17.94;77.09;100396.78;5059390;28;45557;-75
2023/05/24 06:18:21;;;;;;;;;15.67;14.67;;;;;17.92;77.05;100391.50;5077895;28;45373;-77
2023/05/24 06:20:47;;;;;;;;;16.33;15.33;;;;;17.82;77.12;100380.03;5078184;27;45438;-77
2023/05/24 06:23:12;;;;;;;;;20.67;18.33;;;;;17.95;77.09;100403.84;5059930;28;45548;-80
2023/05/24 06:25:39;;;;;;;;;17.75;17.25;;;;;17.72;77.17;100361.56;5077560;28;46235;-83
2023/05/24 06:28:05;;;;;;;;;14.75;13.00;;;;;17.77;77.49;100365.97;5077767;27;45421;-77
2023/05/24 06:30:32;;;;;;;;;18.33;17.00;;;;;17.82;77.34;100385.31;5077957;28;45502;-73
2023/05/24 06:32:57;;;;;;;;;17.33;16.00;;;;;17.98;76.96;100409.09;5077713;27;45466;-82
2023/05/24 06:35:23;;;;;;;;;17.75;16.75;;;;;18.00;77.14;100409.97;5077468;27;46173;-80
2023/05/24 06:37:49;;;;;;;;;23.25;23.00;;;;;17.99;78.03;100409.09;5077531;27;45313;-77
2023/05/24 06:40:15;;;;;;;;;20.33;20.00;;;;;17.89;77.69;100387.09;5077693;28;45456;-75
2023/05/24 06:42:40;;;;;;;;;21.67;17.67;;;;;17.63;77.44;100333.44;5077728;28;45347;-83
2023/05/24 06:45:08;;;;;;;;;25.50;23.00;;;;;18.08;77.23;100393.25;5077721;28;46120;-82
2023/05/24 06:47:34;;;;;;;;;26.50;23.00;;;;;17.87;77.98;100362.44;5077563;28;45409;-74
2023/05/24 06:50:02;;;;;;;;;21.33;18.67;;;;;18.14;77.69;100408.16;5077550;27;45353;-83
2023/05/24 06:52:28;;;;;;;;;21.33;20.33;;;;;18.16;77.83;100416.09;5077688;28;45422;-74
2023/05/24 06:54:53;;;;;;;;;24.75;23.00;;;;;18.17;77.85;100415.22;5077392;28;45508;-76
2023/05/24 06:57:19;;;;;;;;;24.33;22.33;;;;;18.19;78.33;100422.28;5077428;28;45414;-84
2023/05/24 06:59:46;;;;;;;;;20.75;19.25;;;;;17.99;78.35;100377.41;5077751;28;45484;-84
2023/05/24 07:02:12;;;;;;;;;21.33;19.33;;;;;17.97;78.10;100379.16;5077519;27;45576;-81
2023/05/24 07:04:39;;;;;;;;;18.67;18.00;;;;;18.16;78.22;100411.69;5077225;28;45851;-83
2023/05/24 07:07:07;;;;;;;;;22.33;19.67;;;;;18.06;78.47;100400.28;5077103;27;45260;-83
2023/05/24 07:09:33;;;;;;;;;21.33;20.33;;;;;17.54;78.13;100304.38;5077424;28;45256;-83
2023/05/24 07:11:59;;;;;;;;;18.33;18.33;;;;;17.89;77.67;100359.81;5077520;28;45315;-79
2023/05/24 07:14:26;;;;;;;;;30.75;27.50;;;;;18.37;77.80;100431.91;5076892;27;46482;-77
2023/05/24 07:16:53;;;;;;;;;23.67;21.00;;;;;18.26;77.89;100401.97;5077113;27;45267;-81
2023/05/24 07:19:20;;;;;;;;;27.25;26.25;;;;;18.31;77.51;100391.38;5080284;27;45438;-81
2023/05/24 07:21:46;;;;;;;;;28.25;25.00;;;;;18.61;76.99;100435.31;5062006;28;45398;-77
2023/05/24 07:24:12;;;;;;;;;29.75;27.50;;;;;18.64;77.07;100443.22;5080157;28;46222;-79
2023/05/24 07:26:38;;;;;;;;;25.00;23.00;;;;;18.44;77.23;100419.53;5080983;27;45426;-75
2023/05/24 07:29:04;;;;;;;;;27.00;24.00;;;;;18.51;76.95;100426.56;5080886;27;45362;-81
2023/05/24 07:31:31;;;;;;;;;29.25;26.00;;;;;18.65;77.38;100451.16;5080220;28;45358;-77
2023/05/24 07:33:57;;;;;;;;;25.50;24.25;;;;;18.69;77.24;100457.34;5080424;28;45517;-74
2023/05/24 07:36:24;;;;;;;;;33.50;31.00;;;;;18.73;77.01;100461.72;5080425;27;45392;-73
2023/05/24 07:38:50;;;;;;;;;27.00;25.67;;;;;18.71;77.29;100454.69;5080108;28;45425;-73
2023/05/24 07:41:16;;;;;;;;;29.25;25.75;;;;;18.75;77.06;100444.06;5080912;28;45509;-74
2023/05/24 07:43:41;;;;;;;;;27.33;24.00;;;;;18.86;76.65;100466.09;5080099;27;45873;-75
2023/05/24 07:46:07;;;;;;;;;26.75;24.00;;;;;18.95;76.60;100477.53;5080200;27;45556;-73
2023/05/24 07:48:32;;;;;;;;;32.50;26.75;;;;;18.93;76.69;100466.06;5080614;28;45380;-74
2023/05/24 07:50:58;;;;;;;;;28.00;27.00;;;;;19.09;76.21;100491.56;5081031;28;45583;-74
2023/05/24 07:53:23;;;;;;;;;41.00;33.50;;;;;19.00;76.28;100473.06;5080240;28;46231;-75
2023/05/24 07:55:50;;;;;;;;;29.75;25.50;;;;;18.95;76.21;100461.66;5080026;28;45233;-74
2023/05/24 07:58:16;;;;;;;;;27.50;25.25;;;;;19.19;75.87;100505.63;5080135;28;45465;-74
2023/05/24 08:00:41;;;;;;;;;27.75;25.75;;;;;19.24;75.85;100498.56;5080331;28;45293;-73
2023/05/24 08:03:07;;;;;;;;;35.50;28.25;;;;;19.35;75.19;100495.81;5080272;28;46518;-74
2023/05/24 08:05:32;;;;;;;;;28.25;25.50;;;;;19.43;74.94;100499.28;5079873;28;45350;-73
2023/05/24 08:07:58;;;;;;;;;32.25;27.75;;;;;18.73;74.60;100387.63;5080308;28;45434;-74
2023/05/24 08:10:24;;;;;;;;;32.25;26.50;;;;;19.49;74.55;100512.47;5080097;28;45259;-74
2023/05/24 08:12:54;;;;;;;;;30.25;28.75;;;;;19.37;74.08;100486.09;5079833;28;46088;-74
2023/05/24 08:15:20;;;;;;;;;26.25;24.00;;;;;19.38;74.19;100478.13;5061544;28;45335;-74
2023/05/24 08:17:47;;;;;;;;;28.00;25.25;;;;;19.65;73.38;100489.41;5079745;27;45386;-75
2023/05/24 08:20:14;;;;;;;;;23.67;21.67;;;;;19.91;72.90;100510.41;5080085;28;45492;-75
2023/05/24 08:22:40;;;;;;;;;27.00;24.00;;;;;19.96;71.91;100503.31;5061373;28;47755;-76
2023/05/24 08:25:06;;;;;;;;;26.33;24.00;;;;;20.10;71.26;100512.91;5080684;27;45329;-76
2023/05/24 08:27:31;;;;;;;;;29.75;26.25;;;;;20.26;70.68;100491.50;5081089;27;45500;-79
2023/05/24 08:29:57;;;;;;;;;26.75;23.75;;;;;20.54;69.71;100495.63;5080903;27;45490;-74
2023/05/24 08:32:23;;;;;;;;;24.00;20.75;;;;;20.36;68.80;100438.34;5061110;28;46254;-74
2023/05/24 08:34:49;;;;;;;;;31.00;25.67;;;;;20.88;68.78;100490.81;5079833;28;45946;-74
2023/05/24 08:37:18;;;;;;;;;28.33;27.00;;;;;21.08;68.26;100503.81;5079321;28;45292;-74
2023/05/24 08:39:43;;;;;;;;;27.33;23.33;;;;;21.12;68.15;100508.19;5079554;28;45314;-74
2023/05/24 08:42:09;;;;;;;;;27.67;23.00;;;;;21.20;66.94;100489.47;5079398;28;46291;-74
2023/05/24 08:44:44;;;;;;;;;25.33;23.00;;;;;21.68;66.52;100502.94;5079238;28;45506;-75
2023/05/24 08:47:10;;;;;;;;;33.00;30.00;;;;;21.90;63.94;100439.59;5079546;28;45429;-73
2023/05/24 08:49:37;;;;;;;;;26.75;22.50;;;;;22.56;62.13;100418.81;5080770;28;45426;-74
2023/05/24 08:52:06;;;;;;;;;23.00;21.33;;;;;23.44;61.35;100495.03;5079567;27;45422;-74
2023/05/24 08:54:35;;;;;;;;;27.25;25.50;;;;;23.03;60.10;100432.91;5079380;28;45406;-74
2023/05/24 08:57:02;;;;;;;;;22.67;21.33;;;;;23.54;60.21;100461.88;5079593;28;45332;-73
2023/05/24 08:59:27;;;;;;;;;24.33;23.67;;;;;24.16;58.81;100485.19;5079183;28;45429;-74
2023/05/24 09:01:53;;;;;;;;;23.00;22.33;;;;;25.43;52.91;100447.63;5078556;28;45332;-74
2023/05/24 09:04:23;;;;;;;;;21.00;19.00;;;;;27.30;50.15;100471.22;5078821;27;45363;-81
2023/05/24 09:06:50;;;;;;;;;26.67;25.67;;;;;27.58;50.73;100471.81;5078828;27;45383;-74
2023/05/24 09:09:20;;;;;;;;;26.67;26.00;;;;;27.70;48.01;100438.22;5079125;28;45355;-75
2023/05/24 09:11:48;;;;;;;;;25.75;24.25;;;;;27.59;48.19;100472.69;5078480;28;45500;-75
2023/05/24 09:14:14;;;;;;;;;23.33;20.00;;;;;27.09;48.95;100473.78;5060190;28;45248;-75
2023/05/24 09:16:40;;;;;;;;;22.33;21.33;;;;;26.53;51.03;100458.06;5078278;28;45549;-75
2023/05/24 09:19:06;;;;;;;;;23.00;21.00;;;;;26.13;50.93;100454.19;5078689;28;45537;-75
2023/05/24 09:21:32;;;;;;;;;18.33;17.33;;;;;25.64;51.86;100423.75;5078734;27;45792;-74
2023/05/24 09:23:58;;;;;;;;;24.00;21.33;;;;;25.79;51.96;100482.09;5078572;27;45411;-75
2023/05/24 09:26:27;;;;;;;;;22.33;18.33;;;;;25.60;51.20;100477.38;5078711;27;45199;-74
2023/05/24 09:28:56;;;;;;;;;20.67;18.00;;;;;25.34;51.68;100477.34;5078671;27;45371;-76
2023/05/24 09:31:36;;;;;;;;;20.67;19.00;;;;;25.01;52.46;100490.81;5077802;27;45474;-74
2023/05/24 09:34:02;;;;;;;;;22.00;21.67;;;;;24.56;52.16;100472.56;5077870;27;45429;-74
2023/05/24 09:36:28;;;;;;;;;20.00;16.67;;;;;24.67;53.71;100494.50;5078033;28;45406;-76
2023/05/24 09:39:08;;;;;;;;;18.33;16.33;;;;;24.45;53.13;100431.91;5077786;28;45461;-74
2023/05/24 09:41:37;;;;;;;;;21.33;18.33;;;;;24.94;52.11;100494.59;5078380;28;45417;-74
2023/05/24 09:44:04;;;;;;;;;26.67;24.00;;;;;25.12;52.00;100494.00;5078209;28;45409;-74
2023/05/24 09:46:35;;;;;;;;;25.00;22.67;;;;;25.08;51.39;100467.44;5059678;28;45430;-74
2023/05/24 09:49:05;;;;;;;;;22.00;19.67;;;;;24.35;51.08;100405.50;5078369;28;45494;-74
2023/05/24 09:51:32;;;;;;;;;27.00;23.67;;;;;24.88;50.89;100492.97;5059615;28;45555;-74
2023/05/24 09:54:01;;;;;;;;;22.67;21.00;;;;;24.82;50.29;100455.75;5077943;28;45457;-74
2023/05/24 09:56:28;;;;;;;;;21.33;19.00;;;;;25.28;51.08;100494.44;5077754;28;45513;-74
2023/05/24 09:58:54;;;;;;;;;20.67;19.33;;;;;25.36;50.97;100500.41;5077838;28;45284;-74
2023/05/24 10:01:23;;;;;;;;;19.33;18.00;;;;;25.26;50.34;100471.38;5077361;28;45346;-74
2023/05/24 10:03:57;;;;;;;;;19.00;18.33;;;;;25.70;50.10;100493.09;5077772;28;45501;-74
2023/05/24 10:06:24;;;;;;;;;18.33;18.00;;;;;25.98;49.12;100501.09;5077705;28;45492;-74
2023/05/24 10:08:51;;;;;;;;;23.33;22.33;;;;;25.59;49.19;100462.22;5078043;28;45633;-74
2023/05/24 10:11:17;;;;;;;;;21.00;19.67;;;;;25.88;49.04;100502.31;5077397;28;45423;-74
2023/05/24 10:13:43;;;;;;;;;23.00;22.00;;;;;26.55;47.97;100496.38;5077270;28;45519;-74
2023/05/24 10:16:09;;;;;;;;;21.67;19.00;;;;;27.19;46.32;100509.16;5078036;27;45298;-74
2023/05/24 10:18:35;;;;;;;;;20.00;19.00;;;;;27.71;45.79;100509.72;5078216;28;45456;-74
2023/05/24 10:21:06;;;;;;;;;19.67;19.67;;;;;28.31;45.99;100504.53;5077530;28;45394;-74
2023/05/24 10:23:34;;;;;;;;;19.00;17.33;;;;;28.49;42.65;100493.88;5077554;28;45310;-74
2023/05/24 10:26:18;;;;;;;;;25.33;23.00;;;;;28.07;43.97;100509.16;5077806;28;45576;-74
2023/05/24 10:28:48;;;;;;;;;20.00;20.00;;;;;27.75;45.21;100511.38;5077831;27;45397;-75
2023/05/24 10:31:25;;;;;;;;;20.67;19.33;;;;;27.44;45.71;100521.63;5077505;27;45291;-74
2023/05/24 10:33:52;;;;;;;;;19.33;19.33;;;;;26.90;46.12;100521.91;5077275;27;45349;-74
2023/05/24 10:36:18;;;;;;;;;19.33;19.00;;;;;26.46;47.07;100513.69;5059409;28;45382;-74
2023/05/24 10:38:47;;;;;;;;;19.67;19.00;;;;;26.12;48.30;100492.56;5077537;28;45544;-74
2023/05/24 10:41:13;;;;;;;;;18.67;17.33;;;;;26.08;47.36;100520.38;5077278;28;45441;-75
2023/05/24 10:43:38;;;;;;;;;19.67;18.67;;;;;25.96;47.88;100500.25;5059304;28;45532;-75
2023/05/24 10:46:07;;;;;;;;;20.67;20.67;;;;;25.63;48.72;100531.69;5077646;28;45410;-74
2023/05/24 10:48:38;;;;;;;;;20.67;18.00;;;;;25.91;49.07;100534.34;5077608;27;45282;-75
2023/05/24 10:51:38;;;;;;;;;21.33;21.33;;;;;26.17;47.95;100520.94;5076055;27;45325;-76
2023/05/24 10:54:15;;;;;;;;;19.33;17.00;;;;;26.26;48.15;100530.47;5077103;27;45448;-75
2023/05/24 10:56:43;;;;;;;;;21.67;19.67;;;;;26.04;47.75;100535.66;5077423;28;45226;-75
2023/05/24 10:59:27;;;;;;;;;21.00;19.33;;;;;25.42;48.33;100494.00;5077488;27;45553;-75
2023/05/24 11:02:00;;;;;;;;;22.67;20.00;;;;;25.32;48.52;100535.34;5077096;28;45708;-75
2023/05/24 11:04:29;;;;;;;;;18.00;17.67;;;;;25.28;48.79;100539.03;5077068;28;45508;-75
2023/05/24 11:07:00;;;;;;;;;20.67;18.33;;;;;24.94;48.44;100503.47;5077175;28;45323;-75
2023/05/24 11:09:27;;;;;;;;;22.00;20.33;;;;;25.15;49.18;100543.84;5077371;28;45495;-75
2023/05/24 11:12:06;;;;;;;;;19.33;17.67;;;;;25.42;48.85;100542.13;5076817;28;45444;-76